Flight Track Log - Related Links

Times and Time Zones

All times are in EDT time to prevent confusion due to time zone crossing. See the AWE9325 flight status page for this flight to view local times or setup timezone preferences in your user account.

Time Position Orientation Groundspeed Altitude Reporting Facility
EDT Latitude Longitude Course Direction KTS MPH feet Rate Location/Type
Sat 07:30:00 PM 33.9258 -118.1017 94° East  Level Estimated
Sat 07:31:00 PM 33.9201 -117.9996 94° East  Level Estimated
Sat 07:32:00 PM 33.9142 -117.8975 94° East  Level Estimated
Sat 07:33:00 PM 33.9083 -117.7955 94° East  Level Estimated
Sat 07:34:00 PM 33.9023 -117.6934 94° East  Level Estimated
Sat 07:35:00 PM 33.8963 -117.5914 94° East  Level Estimated
Sat 07:36:00 PM 33.8901 -117.4894 94° East  Level Estimated
Sat 07:37:00 PM 33.8839 -117.3874 94° East  Level Estimated
Sat 07:38:00 PM 33.8775 -117.2854 94° East  Level Estimated
Sat 07:39:00 PM 33.8711 -117.1834 94° East  Level Estimated
Sat 07:40:00 PM 33.8647 -117.0814 94° East  Level Estimated
Sat 07:41:00 PM 33.8581 -116.9795 94° East  Level Estimated
Sat 07:42:00 PM 33.8514 -116.8775 94° East  Level Estimated
Sat 07:43:00 PM 33.8447 -116.7756 95° East  Level Estimated
Sat 07:44:00 PM 33.8378 -116.6737 95° East  Level Estimated
Sat 07:45:00 PM 33.8309 -116.5719 95° East  Level Estimated
Sat 07:46:00 PM 33.8239 -116.4700 95° East  Level Estimated
Sat 07:47:00 PM 33.8168 -116.3681 95° East  Level Estimated
Sat 07:48:00 PM 33.8097 -116.2663 95° East  Level Estimated
Sat 07:49:00 PM 33.8024 -116.1645 95° East  Level Estimated
Sat 07:50:00 PM 33.7951 -116.0627 95° East  Level Estimated
Sat 07:51:00 PM 33.7877 -115.9609 95° East  Level Estimated
Sat 07:52:00 PM 33.7802 -115.8592 95° East  Level Estimated
Sat 07:53:00 PM 33.7726 -115.7574 95° East  Level Estimated
Sat 07:54:00 PM 33.7650 -115.6557 95° East  Level Estimated
Sat 07:55:00 PM 33.7572 -115.5540 95° East  Level Estimated
Sat 07:56:00 PM 33.7494 -115.4523 95° East  Level Estimated
Sat 07:57:00 PM 33.7415 -115.3506 95° East  Level Estimated
Sat 07:58:00 PM 33.7335 -115.2490 95° East  Level Estimated
Sat 07:59:00 PM 33.7254 -115.1473 95° East  Level Estimated
Sat 08:00:00 PM 33.7172 -115.0457 95° East  Level Estimated
Sat 08:01:00 PM 33.7090 -114.9441 96° East  Level Estimated
Sat 08:02:00 PM 33.7006 -114.8426 96° East  Level Estimated
Sat 08:03:00 PM 33.6922 -114.7410 96° East  Level Estimated
Sat 08:04:00 PM 33.6837 -114.6395 96° East  Level Estimated
Sat 08:05:00 PM 33.6752 -114.5380 96° East  Level Estimated
Sat 08:06:00 PM 33.6665 -114.4365 96° East  Level Estimated
Sat 08:07:00 PM 33.6577 -114.3350 96° East  Level Estimated
Sat 08:08:00 PM 33.6489 -114.2336 96° East  Level Estimated
Sat 08:09:00 PM 33.6400 -114.1321 96° East  Level Estimated
Sat 08:10:00 PM 33.6295 -114.0138 96° East  Level Estimated
Sat 08:11:00 PM 33.6189 -113.8955 96° East  Level Estimated
Sat 08:12:00 PM 33.6082 -113.7773 96° East  Level Estimated
Sat 08:13:00 PM 33.5973 -113.6591 96° East  Level Estimated
Sat 08:14:00 PM 33.5864 -113.5409 96° East  Level Estimated
Sat 08:15:00 PM 33.5753 -113.4227 96° East  Level Estimated
Sat 08:16:00 PM 33.5641 -113.3046 96° East  Level Estimated
Sat 08:17:00 PM 33.5528 -113.1865 97° East  Level Estimated
Sat 08:18:00 PM 33.5415 -113.0684 97° East  Level Estimated
Sat 08:19:00 PM 33.5299 -112.9504 97° East  Level Estimated
Sat 08:20:00 PM 33.5183 -112.8324 97° East  Level Estimated
Sat 08:21:00 PM 33.5066 -112.7144 97° East  Level Estimated
Sat 08:22:00 PM 33.4947 -112.5965 97° East  Level Estimated
Sat 08:23:00 PM 33.4828 -112.4785 97° East  Level Estimated
Sat 08:24:00 PM 33.4707 -112.3607 97° East  Level Estimated
Sat 08:25:00 PM 33.4585 -112.2428 97° East  Level Estimated
Sat 08:26:00 PM 33.4467 -112.1292 97° East  Level Estimated
Sat 08:27:00 PM 33.4347 -112.0156 97° East  Level Estimated

Login

Don't have an account? Register now (free) for customized features, flight alerts, and more!